Startpagina
METAR-TAF:

METAR-TAF

Vliegvelden :

Shanghai-Pudong, China

Luchthaven Shanghai Pudong

breedte: 31-07N, lengte: 121-46E, hoogte: 4 m

Actueel weer

Dit bericht is 22 minuten geleden gemaakt, om 21:30 UTC
Wind 8 kt uit het noordnoordoosten
Temperatuur 8°C
Vochtigheid 81%
Druk 1024 hPa
Zicht: 3500 m
Geheel bewolkt op 2300 ft
nevel

METAR: ZSPD 182130Z 02004MPS 3500 BR OVC023 08/05 Q1024 NOSIG

Tijdstip: 05:52 (21:52 UTC)

Verwachting

Dit bericht is 6 uur en het 38 minuten geleden gemaakt, om 15:14 UTC
Verwachting geldig van 18 om 18 UTC tot 19 om 18 UTC
Wind 8 kt uit het noordnoordoosten
Zicht: 3500 m
Gebroken wolken op 1100 ft
nevel

TAF: ZSPD 181514Z 1818/1918 03004MPS 3500 BR BKN011 TX11/1906Z TN06/1821Z

Waarnemingen en weersverwachtingen van meer dan 4000 vliegvelden (METAR en TAF).

De beschikbare stations zijn de gele en rode punten op de kaart.

Ga met uw muis naar het station om de naam te zien.

Klik dan om waarnemingen en weersverwachtingen te zien.

kaart wijzigen: klik op de groene knoppen met een zwart kruis om in te zoomen, op de groene knop met een streepje om uit te zoomen of op de groene pijlen voor aangrenzende kaarten.


METAR-TAF: